Aviation Digital Data Service (ADDS)

Output produced by METARs form (0211 UTC 28 August 2015)
found at http://aviationweather.gov/adds/metars/
 
KSLK 272321Z 2800/2824 VRB02KT P6SM BKN035 
     FM280500 00000KT 3SM BR SCT001 BKN035 
     TEMPO 2805/2808 2SM BR BKN001 
     FM280800 00000KT 1SM BR BKN001 BKN035 
     FM281200 25006KT P6SM BKN035